KSPG/SPG METAR and TAF weather

Enter ICAO airport designator
Station Type Date Time Source
KSPG METAR 2021/05/11 16:53 UTC NOAA

KSPG 111653Z 18008KT 150V210 10SM CLR 31/21 A3007 RMK AO2 SLP183 T03060211


Station Type Date Time Source
KSPG Decoded METAR 2021/05/11 16:53 UTC NOAA

ST PETERSBURG WHITTED AIRPORT , FL, United States (KSPG) 27-46N 082-38W 2M
May 11, 2021 - 12:53 PM EDT / 2021.05.11 1653 UTC
Wind: from the S (180 degrees) at 9 MPH (8 KT) (direction variable):0
Visibility: 10 mile(s):0
Sky conditions: clear
Temperature: 87.1 F (30.6 C)
Dew Point: 70.0 F (21.1 C)
Relative Humidity: 56%
Pressure (altimeter): 30.07 in. Hg (1018 hPa)
ob: KSPG 111653Z 18008KT 150V210 10SM CLR 31/21 A3007 RMK AO2 SLP183 T03060211
cycle: 17

Station Type Date Time Source
KSPG TAF UTC NOAA

Error!

Example: see airport list